SOCA Airport Information

Runway Information
Runway 08 Length 10486 ft width 148 ft
Elevation 18 ft Threshold 0 ft Heading 65
Runway 26 Length 10486 ft Width 148 ft
Elevation 25 ft Threshold 0 ft Heading 245
Airport Frequencies
Type APP Name APP Frequency 119.9 MHZ
Type ATIS Name ATIS Frequency 132.2 MHZ
Type TWR Name TWR Frequency 118.1 MHZ
Airport Navaids
Type VOR-DME Name Cayenne Frequency 115950 KHZ
Type NDB Name Cayenne Frequency 327 KHZ
Airport Weather Information & NOTAM
ADDS - METARS form results

(1941 UTC 25 April 2019)
Data provider http://aviationweather.gov/metar/data/
 
METAR text: SOCA 251930Z AUTO 05015KT 9999 BKN024 BKN056 30/24 Q1011 TEMPO 3000 SHRA BKN010 SCT015TCU
Conditions at: SOCA (CAYENNE/ROCHAMBE, GY) observed 1930 UTC 25 April 2019
Temperature: 30.0°C (86°F)
Dewpoint: 24.0°C (75°F) [RH = 70%]
Pressure (altimeter): 29.85 inches Hg (1011.0 mb)
Winds: from the NE (50 degrees) at 17 MPH (15 knots; 7.7 m/s)
Visibility: 6 or more miles (10+ km)
Ceiling: 2400 feet AGL
Clouds: broken clouds at 2400 feet AGL
broken clouds at 5600 feet AGL
Weather: no significant weather observed at this time

METAR text: SOCA 251900Z AUTO 07014KT 9999 FEW026 BKN052 BKN062 30/23 Q1011 TEMPO 3000 SHRA BKN010 SCT015TCU
Conditions at: SOCA (CAYENNE/ROCHAMBE, GY) observed 1900 UTC 25 April 2019
Temperature: 30.0°C (86°F)
Dewpoint: 23.0°C (73°F) [RH = 66%]
Pressure (altimeter): 29.85 inches Hg (1011.0 mb)
Winds: from the ENE (70 degrees) at 16 MPH (14 knots; 7.2 m/s)
Visibility: 6 or more miles (10+ km)
Ceiling: 5200 feet AGL
Clouds: few clouds at 2600 feet AGL
broken clouds at 5200 feet AGL
broken clouds at 6200 feet AGL
Weather: no significant weather observed at this time

Forecast for: SOCA (CAYENNE/ROCHAMBE, GY)
Text: TAF SOCA 251600Z 2518/2618 07008KT 9999 FEW020 BKN040
Forecast period: 1800 UTC 25 April 2019 to 1800 UTC 26 April 2019
Forecast type: FROM: standard forecast or significant change
Winds: from the ENE (70 degrees) at 9 MPH (8 knots; 4.1 m/s)
Visibility: 6 or more miles 10+ km)
Ceiling: 4000 feet AGL
Clouds: few clouds at 2000 feet AGL
broken clouds at 4000 feet AGL
Weather: no significant weather forecast for this period
Text: PROB40
Forecast period: 1800 UTC 25 April 2019 to 0900 UTC 26 April 2019
Forecast type: TEMPORARY: The following changes expected for less than half the time period
Visibility: 1.86 miles (2.99 km)
Ceiling: 1000 feet AGL
Clouds: broken clouds at 1000 feet AGL
scattered clouds at 1500 feet AGL
Weather: SHRA  (rain showers)